Time;durP1;ratioP1;P1;durP2;ratioP2;P2;SDS_P1;SDS_P2;PMS_P1;PMS_P2;Temp;Humidity;BMP_temperature;BMP_pressure;BME280_temperature;BME280_humidity;BME280_pressure;Samples;Min_cycle;Max_cycle;Signal;HPM_P1;HPM_P2
2021/06/23 00:00:31;;;;;;;57.20;7.22;;;22.50;82.00;;;;;;5007479;28;20092;-59
2021/06/23 00:02:56;;;;;;;45.22;6.53;;;22.70;82.20;;;;;;5006507;28;20018;-59
2021/06/23 00:05:22;;;;;;;59.20;7.30;;;22.60;82.20;;;;;;5008085;28;20033;-60
2021/06/23 00:07:48;;;;;;;50.63;6.93;;;22.60;82.30;;;;;;5020516;28;20489;-59
2021/06/23 00:10:14;;;;;;;50.15;6.95;;;22.60;82.30;;;;;;5008323;28;20401;-60
2021/06/23 00:12:40;;;;;;;58.28;6.85;;;22.60;82.30;;;;;;5012790;28;20024;-59
2021/06/23 00:15:07;;;;;;;41.65;6.55;;;22.60;82.40;;;;;;5031688;28;20046;-60
2021/06/23 00:17:33;;;;;;;53.03;6.55;;;22.60;82.40;;;;;;4996178;28;20076;-60
2021/06/23 00:19:58;;;;;;;41.95;6.72;;;22.50;82.20;;;;;;5007315;28;20057;-59
2021/06/23 00:22:24;;;;;;;33.10;6.22;;;22.50;82.20;;;;;;5023683;28;20018;-60
2021/06/23 00:24:49;;;;;;;38.45;6.07;;;22.50;82.20;;;;;;5004973;28;20030;-59
2021/06/23 00:27:15;;;;;;;39.50;6.03;;;22.50;82.20;;;;;;5007879;28;20072;-59
2021/06/23 00:29:40;;;;;;;39.47;6.38;;;22.50;82.10;;;;;;5006560;28;20030;-59
2021/06/23 00:32:11;;;;;;;32.80;5.82;;;22.50;82.20;;;;;;5008433;28;20096;-59
2021/06/23 00:34:37;;;;;;;33.13;4.82;;;22.40;82.20;;;;;;4988969;28;20149;-59
2021/06/23 00:37:03;;;;;;;34.70;6.40;;;22.40;82.20;;;;;;4987345;28;20145;-59
2021/06/23 00:39:28;;;;;;;33.80;5.63;;;22.40;82.40;;;;;;5008710;28;20029;-59
2021/06/23 00:41:54;;;;;;;24.80;5.13;;;22.40;82.40;;;;;;5008666;28;20022;-59
2021/06/23 00:44:19;;;;;;;34.85;4.90;;;22.30;82.40;;;;;;5007127;28;20057;-59
2021/06/23 00:46:45;;;;;;;24.73;5.38;;;22.30;82.40;;;;;;5036221;28;20593;-59
2021/06/23 00:49:12;;;;;;;23.40;4.72;;;22.30;82.40;;;;;;5006164;28;20040;-60
2021/06/23 00:51:37;;;;;;;25.15;4.40;;;22.30;82.40;;;;;;4987476;28;20032;-60
2021/06/23 00:54:09;;;;;;;20.83;4.22;;;22.30;82.40;;;;;;5006537;28;20413;-60
2021/06/23 00:56:35;;;;;;;23.55;4.65;;;22.30;82.40;;;;;;5005601;28;20101;-59
2021/06/23 00:59:00;;;;;;;26.88;5.40;;;22.30;82.50;;;;;;5022469;28;20109;-59
2021/06/23 01:01:26;;;;;;;17.73;4.05;;;22.30;82.50;;;;;;4990082;28;20022;-59
2021/06/23 01:03:52;;;;;;;20.67;4.15;;;22.20;82.50;;;;;;5009165;28;20061;-60
2021/06/23 01:06:17;;;;;;;24.90;4.38;;;22.20;82.40;;;;;;4990278;28;20444;-60
2021/06/23 01:08:43;;;;;;;23.45;3.70;;;22.20;82.40;;;;;;5007594;28;20358;-59
2021/06/23 01:11:08;;;;;;;22.38;4.70;;;22.20;82.40;;;;;;5007763;28;20029;-59
2021/06/23 01:13:35;;;;;;;18.67;5.22;;;22.20;82.40;;;;;;5007266;28;20118;-59
2021/06/23 01:16:03;;;;;;;29.20;4.85;;;22.20;82.30;;;;;;5007899;28;20481;-59
2021/06/23 01:18:29;;;;;;;23.40;4.43;;;22.20;82.30;;;;;;5009196;28;20030;-60
2021/06/23 01:20:54;;;;;;;19.42;4.07;;;22.20;82.30;;;;;;5003164;28;20046;-59
2021/06/23 01:23:20;;;;;;;19.48;4.45;;;22.20;82.20;;;;;;5021257;28;20610;-60
2021/06/23 01:25:48;;;;;;;14.93;4.57;;;22.00;82.10;;;;;;5022640;28;20441;-60
2021/06/23 01:28:14;;;;;;;15.43;4.18;;;22.10;82.20;;;;;;5005401;28;20061;-59
2021/06/23 01:30:39;;;;;;;17.20;3.85;;;22.20;82.30;;;;;;5001082;28;20076;-59
2021/06/23 01:33:05;;;;;;;20.50;3.97;;;22.10;82.20;;;;;;5004181;28;20505;-59
2021/06/23 01:35:31;;;;;;;11.02;3.67;;;22.10;82.20;;;;;;5003609;28;20500;-59
2021/06/23 01:38:00;;;;;;;16.13;3.80;;;22.10;82.30;;;;;;5002713;28;20392;-59
2021/06/23 01:40:25;;;;;;;10.88;3.90;;;22.10;82.30;;;;;;4989014;28;20040;-59
2021/06/23 01:42:51;;;;;;;13.52;3.53;;;22.10;82.30;;;;;;5019583;28;20030;-59
2021/06/23 01:45:16;;;;;;;11.90;3.67;;;22.00;82.30;;;;;;5000285;28;20056;-59
2021/06/23 01:47:42;;;;;;;16.92;3.38;;;22.10;82.40;;;;;;5027044;28;20478;-60
2021/06/23 01:50:09;;;;;;;15.65;3.80;;;22.00;82.20;;;;;;5002798;28;20101;-59
2021/06/23 01:52:37;;;;;;;9.48;3.33;;;22.00;82.30;;;;;;5003852;28;20033;-60
2021/06/23 01:55:03;;;;;;;11.02;3.10;;;22.00;82.40;;;;;;4987537;28;20045;-59
2021/06/23 01:57:29;;;;;;;9.60;3.35;;;22.00;82.50;;;;;;5023414;28;20088;-60
2021/06/23 01:59:54;;;;;;;15.00;4.60;;;22.00;82.50;;;;;;4973435;28;20049;-60
2021/06/23 02:02:19;;;;;;;15.02;4.80;;;21.90;82.60;;;;;;5007816;28;20022;-59
2021/06/23 02:05:04;;;;;;;14.43;4.72;;;22.00;82.70;;;;;;5008503;28;20509;-59
2021/06/23 02:07:45;;;;;;;10.57;3.78;;;22.00;82.70;;;;;;5036202;28;20033;-60
2021/06/23 02:10:29;;;;;;;11.70;4.53;;;21.90;82.70;;;;;;5005316;28;20031;-59
2021/06/23 02:13:22;;;;;;;9.70;4.32;;;22.00;82.80;;;;;;5005107;28;20532;-60
2021/06/23 02:15:48;;;;;;;10.95;4.00;;;21.90;82.80;;;;;;5004889;28;20374;-60
2021/06/23 02:18:13;;;;;;;13.15;4.53;;;21.90;82.80;;;;;;4993866;28;20034;-60
2021/06/23 02:20:39;;;;;;;10.20;4.22;;;21.90;82.80;;;;;;5010670;28;20060;-60
2021/06/23 02:23:06;;;;;;;7.85;3.15;;;21.90;82.80;;;;;;4990289;28;20383;-59
2021/06/23 02:25:32;;;;;;;10.30;3.50;;;21.90;82.90;;;;;;4993783;28;20036;-60
2021/06/23 02:27:57;;;;;;;8.15;3.40;;;21.90;83.00;;;;;;5011469;28;20038;-60
2021/06/23 02:30:23;;;;;;;12.27;3.35;;;21.90;83.00;;;;;;5011158;28;20109;-60
2021/06/23 02:32:48;;;;;;;6.85;3.17;;;21.80;83.00;;;;;;5006141;28;20049;-60
2021/06/23 02:35:14;;;;;;;8.18;3.30;;;21.80;83.10;;;;;;4997673;28;20497;-59
2021/06/23 02:37:40;;;;;;;7.47;3.53;;;21.80;83.20;;;;;;4993539;28;20026;-60
2021/06/23 02:40:06;;;;;;;11.57;2.80;;;21.80;83.40;;;;;;4998151;28;20052;-60
2021/06/23 02:42:32;;;;;;;6.72;2.50;;;21.80;83.40;;;;;;5041459;28;20125;-59
2021/06/23 02:44:57;;;;;;;7.97;3.00;;;21.80;83.30;;;;;;5006512;28;20125;-60
2021/06/23 02:47:23;;;;;;;8.05;2.80;;;21.70;83.30;;;;;;5006687;28;20114;-60
2021/06/23 02:49:48;;;;;;;8.77;3.10;;;21.70;83.50;;;;;;5008233;28;20397;-59
2021/06/23 02:52:14;;;;;;;12.07;2.50;;;21.70;83.50;;;;;;5001637;28;20457;-59
2021/06/23 02:54:41;;;;;;;8.43;2.40;;;21.70;83.50;;;;;;5008540;28;20084;-60
2021/06/23 02:57:07;;;;;;;8.65;2.80;;;21.60;83.50;;;;;;5019728;28;20397;-59
2021/06/23 02:59:32;;;;;;;7.97;2.80;;;21.70;83.60;;;;;;5015505;28;20599;-60
2021/06/23 03:01:58;;;;;;;7.85;2.72;;;21.70;83.60;;;;;;5009891;28;20087;-60
2021/06/23 03:04:23;;;;;;;6.65;2.78;;;21.70;83.70;;;;;;5024483;28;20429;-59
2021/06/23 03:06:49;;;;;;;5.47;2.85;;;21.60;83.70;;;;;;5013791;28;20422;-59
2021/06/23 03:09:14;;;;;;;8.68;2.92;;;21.60;83.80;;;;;;5010248;28;20065;-59
2021/06/23 03:11:40;;;;;;;4.47;2.30;;;21.60;83.80;;;;;;5010471;28;20156;-60
2021/06/23 03:14:07;;;;;;;4.63;2.47;;;21.60;83.80;;;;;;5012242;28;20026;-59
2021/06/23 03:16:33;;;;;;;4.95;2.60;;;21.60;83.80;;;;;;5011594;28;20014;-60
2021/06/23 03:18:58;;;;;;;6.60;2.30;;;21.60;83.80;;;;;;5017055;28;20084;-60
2021/06/23 03:21:24;;;;;;;7.80;2.38;;;21.60;83.90;;;;;;5009894;28;20046;-60
2021/06/23 03:23:50;;;;;;;6.82;2.30;;;21.60;83.90;;;;;;5009666;28;20036;-60
2021/06/23 03:26:18;;;;;;;4.25;2.08;;;21.60;83.90;;;;;;4990224;28;20050;-60
2021/06/23 03:28:44;;;;;;;7.97;2.63;;;21.60;83.90;;;;;;4988429;28;20052;-59
2021/06/23 03:31:09;;;;;;;8.70;2.28;;;21.60;83.90;;;;;;5019308;28;20434;-59
2021/06/23 03:33:35;;;;;;;4.55;2.38;;;21.60;83.70;;;;;;5018551;28;20565;-59
2021/06/23 03:36:00;;;;;;;5.88;2.15;;;21.60;83.60;;;;;;4989225;28;20022;-59
2021/06/23 03:38:26;;;;;;;7.35;2.28;;;21.50;83.50;;;;;;4990321;28;20437;-60
2021/06/23 03:40:51;;;;;;;3.95;1.95;;;21.50;83.60;;;;;;4991322;28;20474;-59
2021/06/23 03:43:19;;;;;;;5.32;1.70;;;21.50;83.60;;;;;;4990750;28;20744;-60
2021/06/23 03:45:45;;;;;;;5.07;1.80;;;21.50;83.60;;;;;;4989380;28;20447;-60
2021/06/23 03:48:11;;;;;;;2.92;2.05;;;21.50;83.50;;;;;;5004642;28;20026;-60
2021/06/23 03:50:36;;;;;;;4.85;1.73;;;21.50;83.50;;;;;;4972095;28;20045;-60
2021/06/23 03:53:02;;;;;;;3.88;2.13;;;21.50;83.60;;;;;;4988770;28;20033;-60
2021/06/23 03:55:28;;;;;;;5.72;2.30;;;21.50;83.60;;;;;;4989792;28;20068;-60
2021/06/23 03:57:54;;;;;;;3.20;1.80;;;21.50;83.60;;;;;;4991766;28;20022;-60
2021/06/23 04:00:21;;;;;;;8.68;2.00;;;21.40;83.50;;;;;;5017500;28;20390;-60
2021/06/23 04:02:47;;;;;;;3.72;1.85;;;21.40;83.50;;;;;;4988020;28;20031;-60
2021/06/23 04:05:12;;;;;;;3.40;2.25;;;21.40;83.50;;;;;;4988686;28;20037;-60
2021/06/23 04:07:38;;;;;;;4.88;2.03;;;21.40;83.50;;;;;;4988973;28;20031;-60
2021/06/23 04:10:05;;;;;;;3.83;1.65;;;21.40;83.50;;;;;;4991432;28;20105;-60
2021/06/23 04:12:30;;;;;;;4.05;1.85;;;21.40;83.50;;;;;;4988709;28;20078;-61
2021/06/23 04:14:55;;;;;;;4.10;1.83;;;21.40;83.40;;;;;;4988487;28;20494;-60
2021/06/23 04:17:21;;;;;;;6.57;2.17;;;21.40;83.40;;;;;;4991329;28;20034;-59
2021/06/23 04:19:47;;;;;;;4.53;1.80;;;21.40;83.40;;;;;;4989386;28;20026;-60
2021/06/23 04:22:13;;;;;;;3.63;1.77;;;21.40;83.40;;;;;;4989151;28;20026;-60
2021/06/23 04:24:38;;;;;;;3.33;1.60;;;21.40;83.40;;;;;;4988927;28;20391;-59
2021/06/23 04:27:04;;;;;;;3.67;2.05;;;21.30;83.30;;;;;;4989309;28;20097;-59
2021/06/23 04:29:29;;;;;;;6.78;1.70;;;21.30;83.30;;;;;;4972811;28;20117;-59
2021/06/23 04:31:55;;;;;;;6.05;2.15;;;21.30;83.20;;;;;;4989289;28;20026;-59
2021/06/23 04:34:20;;;;;;;3.35;1.58;;;21.30;83.30;;;;;;4986677;28;20042;-60
2021/06/23 04:36:46;;;;;;;3.72;1.60;;;21.30;83.40;;;;;;4988686;28;20101;-60
2021/06/23 04:39:11;;;;;;;5.68;1.60;;;21.30;83.50;;;;;;4990685;28;20038;-60
2021/06/23 04:41:37;;;;;;;5.10;1.70;;;21.30;83.50;;;;;;4988829;28;20019;-59
2021/06/23 04:44:03;;;;;;;3.33;1.63;;;21.20;83.60;;;;;;5005106;28;20031;-59
2021/06/23 04:46:32;;;;;;;4.65;1.70;;;21.20;83.70;;;;;;4970622;28;20047;-59
2021/06/23 04:48:58;;;;;;;5.07;1.48;;;21.20;83.70;;;;;;4973217;28;20060;-60
2021/06/23 04:51:23;;;;;;;8.40;2.08;;;21.20;83.70;;;;;;4987268;28;20146;-60
2021/06/23 04:53:49;;;;;;;5.35;1.80;;;21.20;83.70;;;;;;4987425;28;20046;-60
2021/06/23 04:56:14;;;;;;;6.03;1.88;;;21.20;83.70;;;;;;4989965;28;20038;-60
2021/06/23 04:58:40;;;;;;;3.70;1.83;;;21.20;83.80;;;;;;4989851;28;20030;-60
2021/06/23 05:01:05;;;;;;;3.28;1.55;;;21.20;83.80;;;;;;4988904;28;20520;-61
2021/06/23 05:03:31;;;;;;;4.35;1.42;;;21.20;83.70;;;;;;4987178;28;20517;-59
2021/06/23 05:05:58;;;;;;;4.70;1.42;;;21.20;83.70;;;;;;4988329;28;20038;-60
2021/06/23 05:08:25;;;;;;;3.38;1.65;;;21.20;83.70;;;;;;4988556;28;20379;-59
2021/06/23 05:10:51;;;;;;;4.05;1.80;;;21.10;83.90;;;;;;5005129;28;20085;-59
2021/06/23 05:13:16;;;;;;;5.68;2.00;;;21.20;83.90;;;;;;4990022;28;20058;-60
2021/06/23 05:15:42;;;;;;;6.45;2.05;;;21.20;83.80;;;;;;5020263;28;20315;-60
2021/06/23 05:18:07;;;;;;;4.97;1.90;;;21.20;84.00;;;;;;4997894;28;20034;-60
2021/06/23 05:20:33;;;;;;;7.93;1.95;;;21.20;84.00;;;;;;4988819;28;20039;-60
2021/06/23 05:22:58;;;;;;;3.28;1.77;;;21.20;83.90;;;;;;4988098;28;20026;-60
2021/06/23 05:25:24;;;;;;;9.45;1.80;;;21.20;83.80;;;;;;4988406;28;20057;-59
2021/06/23 05:27:49;;;;;;;6.88;2.30;;;21.20;84.40;;;;;;4986897;28;20501;-60
2021/06/23 05:30:17;;;;;;;3.45;1.65;;;21.20;83.70;;;;;;4986442;28;20406;-59
2021/06/23 05:32:42;;;;;;;8.15;1.52;;;21.20;83.80;;;;;;5011071;28;20407;-60
2021/06/23 05:35:08;;;;;;;5.15;2.00;;;21.20;83.80;;;;;;4988546;28;20023;-59
2021/06/23 05:37:34;;;;;;;8.40;1.88;;;21.20;83.80;;;;;;4988961;28;20548;-59
2021/06/23 05:39:59;;;;;;;8.88;1.70;;;21.20;83.80;;;;;;4987973;28;20117;-61
2021/06/23 05:42:25;;;;;;;6.30;1.90;;;21.20;83.90;;;;;;4987377;28;20030;-60
2021/06/23 05:44:50;;;;;;;7.78;1.80;;;21.20;83.80;;;;;;4986445;28;20077;-60
2021/06/23 05:47:16;;;;;;;10.95;1.85;;;21.20;83.90;;;;;;4987525;28;20097;-60
2021/06/23 05:49:42;;;;;;;5.93;2.15;;;21.20;83.80;;;;;;4984768;28;20038;-60
2021/06/23 05:52:07;;;;;;;4.80;1.83;;;21.20;84.10;;;;;;5016430;28;20030;-60
2021/06/23 05:54:33;;;;;;;8.60;2.20;;;21.20;84.20;;;;;;4986770;28;20660;-60
2021/06/23 05:56:58;;;;;;;8.13;2.17;;;21.20;84.00;;;;;;5013838;28;20532;-60
2021/06/23 05:59:24;;;;;;;7.22;1.50;;;21.20;84.10;;;;;;4987646;28;20074;-60
2021/06/23 06:01:49;;;;;;;5.05;1.42;;;21.20;84.20;;;;;;4986004;28;20046;-60
2021/06/23 06:04:15;;;;;;;5.57;1.70;;;21.20;84.50;;;;;;4987828;28;20479;-60
2021/06/23 06:06:40;;;;;;;8.30;1.73;;;21.20;84.80;;;;;;4987468;28;20470;-60
2021/06/23 06:09:06;;;;;;;7.03;1.60;;;21.10;85.10;;;;;;4971026;28;20117;-59
2021/06/23 06:11:31;;;;;;;5.30;1.70;;;21.10;85.50;;;;;;4987476;28;20022;-60
2021/06/23 06:13:57;;;;;;;5.40;1.45;;;21.10;85.70;;;;;;4987685;28;20084;-61
2021/06/23 06:16:22;;;;;;;5.15;1.50;;;21.10;86.10;;;;;;5004066;28;20022;-60
2021/06/23 06:18:48;;;;;;;5.75;1.90;;;21.10;86.00;;;;;;4985543;28;21176;-60
2021/06/23 06:21:14;;;;;;;7.30;1.80;;;21.10;86.10;;;;;;4986934;28;20459;-59
2021/06/23 06:23:39;;;;;;;4.47;1.73;;;21.10;85.90;;;;;;4970052;28;20065;-59
2021/06/23 06:26:05;;;;;;;5.30;1.70;;;21.10;86.30;;;;;;4983676;28;20022;-60
2021/06/23 06:28:31;;;;;;;10.40;1.90;;;21.10;86.10;;;;;;5002177;28;20277;-60
2021/06/23 06:30:56;;;;;;;5.65;1.63;;;21.10;86.40;;;;;;4987490;28;20081;-59
2021/06/23 06:33:22;;;;;;;4.47;1.75;;;21.10;86.40;;;;;;4979084;28;20050;-60
2021/06/23 06:35:47;;;;;;;13.55;1.88;;;21.10;86.20;;;;;;4981797;28;20027;-59
2021/06/23 06:38:13;;;;;;;8.05;2.08;;;21.10;86.20;;;;;;4982041;28;20389;-59
2021/06/23 06:40:38;;;;;;;11.48;2.55;;;21.10;86.10;;;;;;4982083;28;20034;-59
2021/06/23 06:43:04;;;;;;;11.40;1.92;;;21.20;86.30;;;;;;4987485;28;20068;-60
2021/06/23 06:45:30;;;;;;;19.60;2.63;;;21.20;86.60;;;;;;4984530;28;20033;-60
2021/06/23 06:47:55;;;;;;;9.57;1.77;;;21.20;86.20;;;;;;4987408;28;20031;-59
2021/06/23 06:50:21;;;;;;;11.15;1.75;;;21.20;85.80;;;;;;4988967;28;20466;-60
2021/06/23 06:52:46;;;;;;;6.18;1.73;;;21.30;85.50;;;;;;4990470;28;20030;-61
2021/06/23 06:55:12;;;;;;;4.80;1.40;;;21.30;85.50;;;;;;4990906;28;20031;-60
2021/06/23 06:57:38;;;;;;;7.50;2.00;;;21.30;85.30;;;;;;4987794;28;20537;-59
2021/06/23 07:00:05;;;;;;;8.05;1.90;;;21.30;85.40;;;;;;4986855;28;20022;-60
2021/06/23 07:02:30;;;;;;;8.45;1.90;;;21.30;85.30;;;;;;4985992;28;20057;-60
2021/06/23 07:04:56;;;;;;;15.43;2.97;;;21.30;85.50;;;;;;4987992;28;20061;-60
2021/06/23 07:07:21;;;;;;;14.98;2.72;;;21.30;85.70;;;;;;5006185;28;20101;-60
2021/06/23 07:09:47;;;;;;;11.45;1.70;;;21.30;85.50;;;;;;4989915;28;20042;-59
2021/06/23 07:12:12;;;;;;;5.72;1.58;;;21.30;85.40;;;;;;4986464;28;20056;-60
2021/06/23 07:14:38;;;;;;;7.72;1.60;;;21.30;85.00;;;;;;4991434;28;20104;-60
2021/06/23 07:17:04;;;;;;;6.93;1.63;;;21.30;85.20;;;;;;4986022;28;20443;-59
2021/06/23 07:19:29;;;;;;;13.05;1.60;;;21.30;85.20;;;;;;4998094;28;20041;-60
2021/06/23 07:21:55;;;;;;;18.17;2.35;;;21.30;85.40;;;;;;4982937;28;20038;-60
2021/06/23 07:24:21;;;;;;;37.35;4.63;;;21.30;85.20;;;;;;4994299;28;20031;-60
2021/06/23 07:26:52;;;;;;;11.18;1.90;;;21.30;85.10;;;;;;5004430;28;20101;-59
2021/06/23 07:29:18;;;;;;;14.82;2.13;;;21.40;85.20;;;;;;4988898;28;20023;-59
2021/06/23 07:31:47;;;;;;;5.80;1.52;;;21.40;85.30;;;;;;4989869;28;20100;-61
2021/06/23 07:36:44;;;;;;;2.53;1.40;;;21.40;84.90;;;;;;4983128;28;20043;-60
2021/06/23 07:39:11;;;;;;;12.52;2.50;;;21.40;84.80;;;;;;5003405;28;20070;-60
2021/06/23 07:41:38;;;;;;;7.85;2.00;;;21.40;84.80;;;;;;4989385;28;20027;-60
2021/06/23 07:44:04;;;;;;;14.02;1.75;;;21.30;84.70;;;;;;5002919;28;20065;-63
2021/06/23 07:46:31;;;;;;;5.00;1.70;;;21.20;84.60;;;;;;4987261;28;20062;-60
2021/06/23 07:48:57;;;;;;;4.18;1.35;;;21.40;84.50;;;;;;4984305;28;20111;-60
2021/06/23 07:51:31;;;;;;;5.72;1.38;;;21.40;84.50;;;;;;4986872;28;20478;-60
2021/06/23 08:09:39;;;;;;;51.63;5.03;;;21.60;84.10;;;;;;5000777;28;20030;-61
2021/06/23 08:12:29;;;;;;;9.32;1.80;;;21.60;84.00;;;;;;4982257;28;20121;-61
2021/06/23 08:14:51;;;;;;;27.52;3.00;;;21.60;84.30;;;;;;4986862;28;20069;-62
2021/06/23 08:17:17;;;;;;;16.25;1.90;;;21.60;84.40;;;;;;4980635;28;20824;-60
2021/06/23 08:19:42;;;;;;;20.60;2.50;;;21.60;84.10;;;;;;4980660;28;20102;-61
2021/06/23 08:22:11;;;;;;;13.75;2.30;;;21.60;84.00;;;;;;4981617;28;20104;-60
2021/06/23 08:24:37;;;;;;;19.08;2.20;;;21.60;83.70;;;;;;4986366;28;20490;-60
2021/06/23 08:27:04;;;;;;;13.52;2.33;;;21.70;83.70;;;;;;4967543;28;20026;-60
2021/06/23 08:29:30;;;;;;;13.43;2.35;;;21.70;83.90;;;;;;4985572;28;20534;-60
2021/06/23 08:31:55;;;;;;;10.63;1.90;;;21.70;83.90;;;;;;4981662;28;20156;-60
2021/06/23 08:34:22;;;;;;;12.60;2.58;;;21.70;83.80;;;;;;4984561;28;20038;-59
2021/06/23 08:36:47;;;;;;;18.00;2.92;;;21.80;83.90;;;;;;4985970;28;20022;-60
2021/06/23 08:39:13;;;;;;;17.35;2.47;;;21.90;83.90;;;;;;4986816;28;20540;-59
2021/06/23 08:41:38;;;;;;;23.17;3.05;;;21.90;83.60;;;;;;4985853;28;20544;-61
2021/06/23 08:44:04;;;;;;;25.13;3.65;;;21.90;83.70;;;;;;4954762;28;20100;-61
2021/06/23 08:46:30;;;;;;;17.30;2.90;;;22.00;83.40;;;;;;4986620;28;20031;-60
2021/06/23 08:48:56;;;;;;;30.58;3.17;;;22.00;82.90;;;;;;4981090;28;20060;-62
2021/06/23 08:51:22;;;;;;;20.77;2.47;;;22.10;82.60;;;;;;4997797;28;20196;-61
2021/06/23 08:53:48;;;;;;;52.75;5.63;;;22.10;82.50;;;;;;4995917;28;20039;-61
2021/06/23 08:56:14;;;;;;;39.28;4.53;;;22.10;82.60;;;;;;4948300;28;20039;-62
2021/06/23 08:58:39;;;;;;;34.38;4.60;;;22.10;82.60;;;;;;4982487;28;20034;-61
2021/06/23 09:01:05;;;;;;;50.65;5.28;;;22.10;82.40;;;;;;4980494;28;20161;-60
2021/06/23 09:03:30;;;;;;;38.25;3.28;;;22.20;82.30;;;;;;4983601;28;20405;-60
2021/06/23 09:05:57;;;;;;;46.20;5.28;;;22.20;82.10;;;;;;4996129;28;20482;-60
2021/06/23 09:08:36;;;;;;;47.30;5.97;;;22.20;82.10;;;;;;4981919;28;20038;-61
2021/06/23 09:11:15;;;;;;;41.85;6.28;;;22.20;82.30;;;;;;4984037;28;20394;-61
2021/06/23 09:13:41;;;;;;;16.13;2.40;;;22.30;82.20;;;;;;4981991;28;20073;-61
2021/06/23 09:16:07;;;;;;;40.78;4.13;;;22.20;81.60;;;;;;4990134;28;20105;-60
2021/06/23 09:18:40;;;;;;;42.60;5.32;;;22.20;81.80;;;;;;4983540;28;20490;-63
2021/06/23 09:21:14;;;;;;;217.07;18.10;;;22.30;81.50;;;;;;4976231;28;20366;-62
2021/06/23 09:23:52;;;;;;;57.15;6.30;;;22.30;82.00;;;;;;4976215;28;20022;-62
2021/06/23 09:26:29;;;;;;;45.67;5.78;;;22.30;81.90;;;;;;4982988;28;20108;-62
2021/06/23 09:29:14;;;;;;;34.75;4.85;;;22.30;81.80;;;;;;4979431;28;20031;-60
2021/06/23 09:32:02;;;;;;;37.70;5.32;;;22.30;81.80;;;;;;4981123;28;20038;-62
2021/06/23 09:34:32;;;;;;;43.00;6.20;;;22.40;81.70;;;;;;4980056;28;20482;-62
2021/06/23 09:36:58;;;;;;;35.45;3.55;;;22.40;81.60;;;;;;4982167;28;20356;-62
2021/06/23 09:39:28;;;;;;;41.85;5.53;;;22.40;80.90;;;;;;4977267;28;20101;-63
2021/06/23 09:41:54;;;;;;;54.10;5.90;;;22.40;80.90;;;;;;4963870;28;20033;-63
2021/06/23 09:44:22;;;;;;;55.17;7.20;;;22.40;80.80;;;;;;4977331;28;20030;-62
2021/06/23 09:46:47;;;;;;;37.65;5.60;;;22.50;80.80;;;;;;4977743;28;20062;-60
2021/06/23 09:49:16;;;;;;;53.65;6.13;;;22.50;80.40;;;;;;4995043;28;20646;-61
2021/06/23 09:51:47;;;;;;;39.92;4.65;;;22.50;80.40;;;;;;4978672;28;20036;-60
2021/06/23 09:54:13;;;;;;;27.25;3.60;;;22.50;80.40;;;;;;4980707;28;20021;-62
2021/06/23 09:56:43;;;;;;;55.38;6.63;;;22.50;80.30;;;;;;4983041;28;20066;-61
2021/06/23 09:59:17;;;;;;;27.95;4.30;;;22.60;80.40;;;;;;4995647;28;20026;-62
2021/06/23 10:01:43;;;;;;;27.17;3.97;;;22.60;80.00;;;;;;4983381;28;20034;-60
2021/06/23 10:04:09;;;;;;;14.32;2.63;;;22.60;79.70;;;;;;4983075;28;20157;-61
2021/06/23 10:06:35;;;;;;;47.53;5.43;;;22.60;79.30;;;;;;4984583;28;20114;-61
2021/06/23 10:09:27;;;;;;;33.40;3.95;;;22.70;79.40;;;;;;4984483;28;20030;-60
2021/06/23 10:11:58;;;;;;;58.17;6.68;;;22.70;79.40;;;;;;4950457;28;20034;-60
2021/06/23 10:14:25;;;;;;;29.00;3.88;;;22.70;79.20;;;;;;4982472;28;20034;-61
2021/06/23 10:16:52;;;;;;;33.90;5.00;;;22.80;78.90;;;;;;5011375;28;20061;-60
2021/06/23 10:19:18;;;;;;;52.08;5.05;;;22.80;78.30;;;;;;4979565;28;20030;-62
2021/06/23 10:21:44;;;;;;;36.75;3.92;;;22.80;78.20;;;;;;4983292;28;20051;-59
2021/06/23 10:24:10;;;;;;;40.20;4.70;;;22.90;78.00;;;;;;4974526;28;20862;-60
2021/06/23 10:26:38;;;;;;;53.75;5.07;;;22.90;77.70;;;;;;4993185;28;20039;-62
2021/06/23 10:29:04;;;;;;;52.80;5.25;;;23.00;77.60;;;;;;4970185;28;20031;-60
2021/06/23 10:31:30;;;;;;;68.80;6.53;;;23.00;77.50;;;;;;4985611;28;20046;-62
2021/06/23 10:33:55;;;;;;;43.05;4.72;;;23.10;77.30;;;;;;4985543;28;20030;-62
2021/06/23 10:36:23;;;;;;;54.83;6.10;;;23.10;76.90;;;;;;4984137;28;20067;-63
2021/06/23 10:38:48;;;;;;;33.20;4.00;;;23.10;76.80;;;;;;4999450;28;20138;-62
2021/06/23 10:41:15;;;;;;;21.65;3.22;;;23.10;76.60;;;;;;4969799;28;20144;-60
2021/06/23 10:43:40;;;;;;;51.50;6.07;;;23.20;76.90;;;;;;4982287;28;20051;-61
2021/06/23 10:46:06;;;;;;;96.57;9.15;;;23.20;77.50;;;;;;4968491;28;20035;-62
2021/06/23 10:49:00;;;;;;;55.80;6.22;;;23.30;77.00;;;;;;4987403;28;20093;-62
2021/06/23 10:51:25;;;;;;;42.22;4.35;;;23.30;76.70;;;;;;4987047;28;20026;-62
2021/06/23 10:53:51;;;;;;;59.42;6.88;;;23.40;76.80;;;;;;4986688;28;20046;-60
2021/06/23 10:56:40;;;;;;;39.33;3.65;;;23.40;76.20;;;;;;4986208;28;20089;-62
2021/06/23 10:59:30;;;;;;;18.73;3.20;;;23.40;75.60;;;;;;4991859;28;20030;-61
2021/06/23 11:02:12;;;;;;;54.22;4.60;;;23.40;75.00;;;;;;4991076;28;20465;-60
2021/06/23 11:05:03;;;;;;;35.70;4.22;;;23.50;75.30;;;;;;4987535;28;20491;-61
2021/06/23 11:07:39;;;;;;;11.90;2.88;;;23.60;74.80;;;;;;5001287;28;20438;-62
2021/06/23 11:10:17;;;;;;;;;;;23.60;74.30;;;;;;4990792;28;20026;-61
2021/06/23 11:12:48;;;;;;;12.68;2.30;;;23.70;74.20;;;;;;4989547;28;20429;-61
2021/06/23 11:15:15;;;;;;;12.32;2.10;;;23.70;73.70;;;;;;4985476;28;20026;-62
2021/06/23 11:17:41;;;;;;;19.58;2.35;;;23.80;73.90;;;;;;4985304;28;20034;-63
2021/06/23 11:20:19;;;;;;;16.25;3.08;;;23.80;74.10;;;;;;5016743;28;20117;-62
2021/06/23 11:22:56;;;;;;;24.67;2.83;;;23.80;74.00;;;;;;4990387;28;20040;-61
2021/06/23 11:25:33;;;;;;;19.90;2.70;;;23.80;74.00;;;;;;4986419;28;20034;-62
2021/06/23 11:28:08;;;;;;;12.02;2.70;;;23.80;74.10;;;;;;4983281;28;20371;-61
2021/06/23 11:30:37;;;;;;;10.52;2.20;;;23.90;73.90;;;;;;4988855;28;20033;-60
2021/06/23 11:33:28;;;;;;;15.18;2.70;;;23.90;73.50;;;;;;4984400;28;20053;-60
2021/06/23 11:35:58;;;;;;;17.00;2.72;;;24.00;73.70;;;;;;4986221;28;20042;-61
2021/06/23 11:38:24;;;;;;;22.35;3.33;;;24.00;73.80;;;;;;5000875;28;20023;-61
2021/06/23 11:40:50;;;;;;;20.40;3.60;;;24.00;73.60;;;;;;4991000;28;20030;-63
2021/06/23 11:43:15;;;;;;;19.00;2.67;;;24.00;73.60;;;;;;4992984;28;20030;-60
2021/06/23 11:45:41;;;;;;;31.88;3.10;;;24.00;73.70;;;;;;4983666;28;20575;-61
2021/06/23 11:48:07;;;;;;;30.10;3.33;;;24.00;73.70;;;;;;4984036;28;20445;-60
2021/06/23 11:50:33;;;;;;;18.35;3.20;;;24.10;73.70;;;;;;4987018;28;20332;-59
2021/06/23 11:52:58;;;;;;;31.40;3.20;;;24.10;73.40;;;;;;4986553;28;20467;-63
2021/06/23 11:55:24;;;;;;;17.67;3.20;;;24.10;73.00;;;;;;4972078;28;20883;-62
2021/06/23 11:57:54;;;;;;;20.42;2.60;;;24.20;73.00;;;;;;4988126;28;20049;-62
2021/06/23 12:00:20;;;;;;;14.75;2.67;;;24.30;72.80;;;;;;4987786;28;20049;-64
2021/06/23 12:02:46;;;;;;;31.70;2.97;;;24.40;72.60;;;;;;4988934;28;20038;-60
2021/06/23 12:05:12;;;;;;;37.60;4.63;;;24.50;72.30;;;;;;4988495;28;20022;-60
2021/06/23 12:07:37;;;;;;;39.42;4.18;;;24.60;71.60;;;;;;4987364;28;20471;-62
2021/06/23 12:10:04;;;;;;;27.67;3.95;;;24.70;71.60;;;;;;4986968;28;20121;-61
2021/06/23 12:12:30;;;;;;;19.23;3.35;;;24.70;71.50;;;;;;4983795;28;20038;-62
2021/06/23 12:14:56;;;;;;;31.27;3.55;;;24.70;71.40;;;;;;4985126;28;20144;-62
2021/06/23 12:17:21;;;;;;;23.60;2.92;;;24.70;71.20;;;;;;4986768;28;20042;-61
2021/06/23 12:19:47;;;;;;;29.35;2.60;;;24.70;70.80;;;;;;4989347;28;20069;-60
2021/06/23 12:22:13;;;;;;;20.35;2.35;;;24.70;70.30;;;;;;4987902;28;20754;-61
2021/06/23 12:24:39;;;;;;;30.35;3.28;;;24.70;69.40;;;;;;4985169;28;20395;-62
2021/06/23 12:27:04;;;;;;;34.50;3.25;;;24.70;68.70;;;;;;4968590;28;20027;-62
2021/06/23 12:29:30;;;;;;;33.03;3.58;;;24.70;68.20;;;;;;4987847;28;20271;-63
2021/06/23 12:31:56;;;;;;;28.65;3.28;;;24.70;68.30;;;;;;4983288;28;20562;-63
2021/06/23 12:34:21;;;;;;;27.05;3.47;;;24.70;68.10;;;;;;4987663;28;20037;-61
2021/06/23 12:36:47;;;;;;;48.53;4.82;;;24.70;68.10;;;;;;5015320;28;20033;-60
2021/06/23 12:39:12;;;;;;;31.67;4.13;;;24.70;68.40;;;;;;4982563;28;20042;-62
2021/06/23 12:41:38;;;;;;;41.05;4.38;;;24.80;68.70;;;;;;4985861;28;20018;-60
2021/06/23 12:44:03;;;;;;;30.48;3.47;;;24.90;68.70;;;;;;4986020;28;20498;-62
2021/06/23 12:46:29;;;;;;;24.98;3.65;;;24.90;68.50;;;;;;4987663;28;20041;-61
2021/06/23 12:48:55;;;;;;;34.85;3.85;;;25.00;68.50;;;;;;4985858;28;20386;-63
2021/06/23 12:51:20;;;;;;;25.92;3.53;;;25.00;68.60;;;;;;4983996;28;20351;-60
2021/06/23 12:53:46;;;;;;;20.65;2.83;;;25.00;68.40;;;;;;4983304;28;20069;-59
2021/06/23 12:56:11;;;;;;;17.30;2.35;;;25.10;67.90;;;;;;4986523;28;20034;-61
2021/06/23 12:58:37;;;;;;;27.58;3.50;;;25.10;67.40;;;;;;4988366;28;20031;-59